TVF72VT LFPO-LDSP
Flight info
| Callsign | TVF72VT |
|---|---|
| Flight time | 1h 40m |
| Altitude | 35000 |
| Route | BUBLI DCT LUVAL DCT BEGAR DCT TRA DCT SUXAN DCT ROTAR DCT SAL |
| Aircraft | A320/M-SDE3FGHIRWY/LB1 |
Departure
| Time | 2026-05-05 14:01 |
|---|---|
| Airport | Paris-Orly Airport (LFPO) |
Arrival
| Time | 2026-05-05 15:41 |
|---|---|
| Airport | Split Saint Jerome Airport (LDSP) |
| Time | Latitude | Longitude | Altitude | Speed | Heading |
|---|---|---|---|---|---|
| 2026-05-05 13:28 | 48.72690 | 2.36592 | 291 ft | 0 kts | 4° |
| 2026-05-05 13:52 | 48.72689 | 2.36592 | 296 ft | 1 kts | 4° |
| 2026-05-05 13:52 | 48.72666 | 2.36589 | 295 ft | 3 kts | 6° |
| 2026-05-05 13:52 | 48.72642 | 2.36585 | 294 ft | 3 kts | 1° |
| 2026-05-05 13:53 | 48.72618 | 2.36586 | 291 ft | 3 kts | 351° |
| 2026-05-05 13:53 | 48.72596 | 2.36596 | 294 ft | 3 kts | 324° |
| 2026-05-05 13:53 | 48.72582 | 2.36620 | 291 ft | 3 kts | 279° |
| 2026-05-05 13:53 | 48.72582 | 2.36643 | 292 ft | 1 kts | 253° |
| 2026-05-05 13:54 | 48.72583 | 2.36647 | 291 ft | 0 kts | 253° |
| 2026-05-05 13:57 | 48.72580 | 2.36633 | 295 ft | 5 kts | 253° |
| 2026-05-05 13:58 | 48.72563 | 2.36541 | 294 ft | 14 kts | 255° |
| 2026-05-05 13:58 | 48.72538 | 2.36398 | 291 ft | 13 kts | 255° |
| 2026-05-05 13:58 | 48.72507 | 2.36249 | 295 ft | 16 kts | 238° |
| 2026-05-05 13:58 | 48.72394 | 2.36257 | 291 ft | 17 kts | 164° |
| 2026-05-05 13:59 | 48.72240 | 2.36413 | 292 ft | 14 kts | 121° |
| 2026-05-05 13:59 | 48.72197 | 2.36515 | 295 ft | 9 kts | 139° |
| 2026-05-05 14:00 | 48.72086 | 2.36593 | 296 ft | 10 kts | 128° |
| 2026-05-05 14:00 | 48.72087 | 2.36647 | 294 ft | 6 kts | 76° |
| 2026-05-05 14:00 | 48.72101 | 2.36727 | 297 ft | 33 kts | 74° |
| 2026-05-05 14:00 | 48.72228 | 2.37416 | 292 ft | 99 kts | 74° |
| 2026-05-05 14:01 | 48.72459 | 2.38660 | 293 ft | 147 kts | 74° |
| 2026-05-05 14:01 | 48.72754 | 2.40299 | 579 ft | 166 kts | 71° |
| 2026-05-05 14:01 | 48.73057 | 2.42003 | 1261 ft | 168 kts | 71° |
| 2026-05-05 14:01 | 48.73372 | 2.43713 | 1924 ft | 170 kts | 71° |
| 2026-05-05 14:02 | 48.73707 | 2.45496 | 2335 ft | 186 kts | 73° |
| 2026-05-05 14:02 | 48.74035 | 2.47509 | 2578 ft | 209 kts | 84° |
| 2026-05-05 14:02 | 48.74113 | 2.49841 | 2857 ft | 234 kts | 87° |
| 2026-05-05 14:02 | 48.74197 | 2.52425 | 3273 ft | 255 kts | 87° |
| 2026-05-05 14:03 | 48.74295 | 2.55147 | 4022 ft | 262 kts | 86° |
| 2026-05-05 14:03 | 48.74465 | 2.57920 | 4863 ft | 266 kts | 84° |
| 2026-05-05 14:03 | 48.74688 | 2.60722 | 5702 ft | 270 kts | 83° |
| 2026-05-05 14:03 | 48.74933 | 2.63566 | 6500 ft | 274 kts | 83° |
| 2026-05-05 14:04 | 48.75182 | 2.66458 | 7296 ft | 279 kts | 83° |
| 2026-05-05 14:04 | 48.75429 | 2.69391 | 8072 ft | 283 kts | 83° |
| 2026-05-05 14:04 | 48.75670 | 2.72368 | 8847 ft | 287 kts | 84° |
| 2026-05-05 14:04 | 48.75907 | 2.75390 | 9606 ft | 291 kts | 84° |
| 2026-05-05 14:05 | 48.76141 | 2.78461 | 10198 ft | 301 kts | 84° |
| 2026-05-05 14:05 | 48.76390 | 2.81762 | 10428 ft | 328 kts | 84° |
| 2026-05-05 14:05 | 48.76661 | 2.85310 | 10613 ft | 350 kts | 85° |
| 2026-05-05 14:05 | 48.76943 | 2.89035 | 11079 ft | 360 kts | 84° |
| 2026-05-05 14:06 | 48.77233 | 2.92841 | 11719 ft | 365 kts | 84° |
| 2026-05-05 14:06 | 48.77524 | 2.96676 | 12382 ft | 368 kts | 85° |
| 2026-05-05 14:06 | 48.77862 | 3.00544 | 13029 ft | 372 kts | 83° |
| 2026-05-05 14:06 | 48.78294 | 3.04444 | 13675 ft | 376 kts | 81° |
| 2026-05-05 14:07 | 48.78775 | 3.08302 | 14296 ft | 379 kts | 80° |
| 2026-05-05 14:07 | 48.79284 | 3.12240 | 14895 ft | 382 kts | 80° |
| 2026-05-05 14:07 | 48.79794 | 3.16220 | 15478 ft | 385 kts | 81° |
| 2026-05-05 14:07 | 48.80294 | 3.20230 | 16048 ft | 388 kts | 81° |
| 2026-05-05 14:08 | 48.80782 | 3.24282 | 16608 ft | 391 kts | 81° |
| 2026-05-05 14:08 | 48.81260 | 3.28361 | 17154 ft | 394 kts | 82° |
| 2026-05-05 14:08 | 48.81735 | 3.32468 | 17670 ft | 397 kts | 82° |
| 2026-05-05 14:08 | 48.82120 | 3.36620 | 18167 ft | 398 kts | 88° |
| 2026-05-05 14:09 | 48.82065 | 3.40809 | 18660 ft | 398 kts | 97° |
| 2026-05-05 14:09 | 48.81787 | 3.45012 | 19161 ft | 401 kts | 97° |
| 2026-05-05 14:09 | 48.81516 | 3.49244 | 19646 ft | 404 kts | 97° |
| 2026-05-05 14:09 | 48.81246 | 3.53496 | 20124 ft | 406 kts | 97° |
| 2026-05-05 14:10 | 48.80975 | 3.57772 | 20590 ft | 408 kts | 97° |
| 2026-05-05 14:10 | 48.80701 | 3.62073 | 21029 ft | 411 kts | 97° |
| 2026-05-05 14:10 | 48.80424 | 3.66404 | 21458 ft | 413 kts | 97° |
| 2026-05-05 14:10 | 48.80144 | 3.70754 | 21876 ft | 416 kts | 97° |
| 2026-05-05 14:11 | 48.79956 | 3.73648 | 22151 ft | 417 kts | 97° |
| 2026-05-05 14:11 | 48.79573 | 3.79476 | 22687 ft | 420 kts | 97° |
| 2026-05-05 14:11 | 48.79375 | 3.82460 | 22950 ft | 422 kts | 97° |
| 2026-05-05 14:11 | 48.78980 | 3.88338 | 23464 ft | 425 kts | 98° |
| 2026-05-05 14:12 | 48.78679 | 3.92803 | 23831 ft | 427 kts | 97° |
| 2026-05-05 14:12 | 48.78376 | 3.97288 | 24188 ft | 429 kts | 98° |
| 2026-05-05 14:12 | 48.78067 | 4.01793 | 24535 ft | 431 kts | 98° |
| 2026-05-05 14:12 | 48.77858 | 4.04849 | 24770 ft | 432 kts | 98° |
| 2026-05-05 14:13 | 48.77514 | 4.09389 | 25102 ft | 433 kts | 102° |
| 2026-05-05 14:13 | 48.76799 | 4.13756 | 25435 ft | 432 kts | 111° |
| 2026-05-05 14:13 | 48.75607 | 4.17925 | 25764 ft | 431 kts | 121° |
| 2026-05-05 14:13 | 48.73997 | 4.21745 | 26094 ft | 431 kts | 127° |
| 2026-05-05 14:14 | 48.72253 | 4.25444 | 26409 ft | 432 kts | 127° |
| 2026-05-05 14:14 | 48.70510 | 4.29157 | 26732 ft | 433 kts | 127° |
| 2026-05-05 14:14 | 48.68764 | 4.32882 | 27043 ft | 435 kts | 127° |
| 2026-05-05 14:14 | 48.67009 | 4.36622 | 27348 ft | 436 kts | 127° |
| 2026-05-05 14:15 | 48.64655 | 4.41635 | 27730 ft | 438 kts | 127° |
| 2026-05-05 14:15 | 48.63485 | 4.44118 | 27935 ft | 438 kts | 127° |
| 2026-05-05 14:15 | 48.61710 | 4.47872 | 28215 ft | 439 kts | 127° |
| 2026-05-05 14:15 | 48.59928 | 4.51631 | 28475 ft | 441 kts | 128° |
| 2026-05-05 14:16 | 48.58134 | 4.55402 | 28743 ft | 442 kts | 128° |
| 2026-05-05 14:16 | 48.56344 | 4.59164 | 29100 ft | 440 kts | 128° |
| 2026-05-05 14:16 | 48.54565 | 4.62913 | 29468 ft | 439 kts | 128° |
| 2026-05-05 14:16 | 48.52792 | 4.66645 | 29849 ft | 437 kts | 128° |
| 2026-05-05 14:17 | 48.51026 | 4.70361 | 30220 ft | 435 kts | 128° |
| 2026-05-05 14:17 | 48.49264 | 4.74062 | 30576 ft | 434 kts | 128° |
| 2026-05-05 14:17 | 48.47506 | 4.77742 | 30920 ft | 432 kts | 128° |
| 2026-05-05 14:17 | 48.45746 | 4.81416 | 31238 ft | 431 kts | 128° |
| 2026-05-05 14:18 | 48.43992 | 4.85075 | 31549 ft | 431 kts | 128° |
| 2026-05-05 14:18 | 48.42234 | 4.88734 | 31854 ft | 430 kts | 129° |
| 2026-05-05 14:18 | 48.40502 | 4.92337 | 32159 ft | 430 kts | 129° |
| 2026-05-05 14:18 | 48.38750 | 4.95973 | 32459 ft | 429 kts | 129° |
| 2026-05-05 14:19 | 48.37003 | 4.99596 | 32740 ft | 428 kts | 129° |
| 2026-05-05 14:19 | 48.35253 | 5.03224 | 33018 ft | 428 kts | 129° |
| 2026-05-05 14:19 | 48.33509 | 5.06838 | 33305 ft | 427 kts | 129° |
| 2026-05-05 14:19 | 48.31766 | 5.10447 | 33578 ft | 427 kts | 129° |
| 2026-05-05 14:20 | 48.30185 | 5.14229 | 33831 ft | 431 kts | 121° |
| 2026-05-05 14:20 | 48.29024 | 5.18401 | 34102 ft | 435 kts | 111° |
| 2026-05-05 14:20 | 48.28296 | 5.22830 | 34357 ft | 438 kts | 107° |
| 2026-05-05 14:20 | 48.27646 | 5.27310 | 34582 ft | 439 kts | 107° |
| 2026-05-05 14:21 | 48.26982 | 5.31787 | 34779 ft | 440 kts | 107° |
| 2026-05-05 14:21 | 48.26307 | 5.36275 | 34854 ft | 442 kts | 107° |
| 2026-05-05 14:21 | 48.24945 | 5.45298 | 34869 ft | 444 kts | 107° |
| 2026-05-05 14:22 | 48.23586 | 5.54336 | 34875 ft | 444 kts | 107° |
| 2026-05-05 14:22 | 48.22230 | 5.63330 | 34870 ft | 445 kts | 107° |
| 2026-05-05 14:23 | 48.20855 | 5.72379 | 34863 ft | 444 kts | 107° |
| 2026-05-05 14:23 | 48.19474 | 5.81408 | 34859 ft | 444 kts | 107° |
| 2026-05-05 14:24 | 48.18080 | 5.90432 | 34850 ft | 445 kts | 107° |
| 2026-05-05 14:24 | 48.16684 | 5.99460 | 34851 ft | 445 kts | 107° |
| 2026-05-05 14:25 | 48.15292 | 6.08496 | 34847 ft | 445 kts | 107° |
| 2026-05-05 14:25 | 48.13881 | 6.17505 | 34843 ft | 444 kts | 107° |
| 2026-05-05 14:26 | 48.12459 | 6.26505 | 34838 ft | 444 kts | 108° |
| 2026-05-05 14:26 | 48.11034 | 6.35503 | 34836 ft | 444 kts | 108° |
| 2026-05-05 14:27 | 48.09603 | 6.44497 | 34837 ft | 444 kts | 108° |
| 2026-05-05 14:27 | 48.08167 | 6.53485 | 34835 ft | 444 kts | 108° |
| 2026-05-05 14:28 | 48.06724 | 6.62469 | 34833 ft | 445 kts | 108° |
| 2026-05-05 14:28 | 48.05275 | 6.71461 | 34831 ft | 445 kts | 108° |
| 2026-05-05 14:29 | 48.03829 | 6.80390 | 34832 ft | 446 kts | 108° |
| 2026-05-05 14:29 | 48.02355 | 6.89390 | 34832 ft | 446 kts | 108° |
| 2026-05-05 14:30 | 48.00876 | 6.98390 | 34834 ft | 446 kts | 108° |
| 2026-05-05 14:30 | 47.99387 | 7.07391 | 34834 ft | 447 kts | 108° |
| 2026-05-05 14:31 | 47.97894 | 7.16406 | 34811 ft | 448 kts | 109° |
| 2026-05-05 14:31 | 47.96388 | 7.25447 | 34816 ft | 450 kts | 109° |
| 2026-05-05 14:32 | 47.94869 | 7.34503 | 34817 ft | 450 kts | 109° |
| 2026-05-05 14:32 | 47.93341 | 7.43571 | 34823 ft | 451 kts | 109° |
| 2026-05-05 14:33 | 47.91802 | 7.52632 | 34833 ft | 451 kts | 109° |
| 2026-05-05 14:33 | 47.90030 | 7.61557 | 34840 ft | 447 kts | 115° |
| 2026-05-05 14:34 | 47.87837 | 7.70219 | 34849 ft | 446 kts | 115° |
| 2026-05-05 14:34 | 47.85643 | 7.78860 | 34853 ft | 446 kts | 115° |
| 2026-05-05 14:35 | 47.83453 | 7.87497 | 34854 ft | 446 kts | 115° |
| 2026-05-05 14:35 | 47.81265 | 7.96065 | 34861 ft | 445 kts | 115° |
| 2026-05-05 14:36 | 47.79056 | 8.04672 | 34861 ft | 445 kts | 115° |
| 2026-05-05 14:36 | 47.76840 | 8.13274 | 34856 ft | 446 kts | 116° |
| 2026-05-05 14:37 | 47.74615 | 8.21876 | 34857 ft | 446 kts | 116° |
| 2026-05-05 14:37 | 47.72394 | 8.30465 | 34856 ft | 446 kts | 116° |
| 2026-05-05 14:38 | 47.70158 | 8.39067 | 34850 ft | 446 kts | 116° |
| 2026-05-05 14:38 | 47.67194 | 8.47010 | 34843 ft | 436 kts | 133° |
| 2026-05-05 14:39 | 47.63415 | 8.54058 | 34840 ft | 437 kts | 133° |
| 2026-05-05 14:39 | 47.59639 | 8.61130 | 34840 ft | 439 kts | 133° |
| 2026-05-05 14:40 | 47.55846 | 8.68235 | 34842 ft | 440 kts | 133° |
| 2026-05-05 14:40 | 47.52039 | 8.75326 | 34844 ft | 441 kts | 133° |
| 2026-05-05 14:41 | 47.48237 | 8.82378 | 34845 ft | 442 kts | 133° |
| 2026-05-05 14:41 | 47.44389 | 8.89498 | 34845 ft | 443 kts | 133° |
| 2026-05-05 14:42 | 47.40541 | 8.96619 | 34845 ft | 444 kts | 134° |
| 2026-05-05 14:42 | 47.36679 | 9.03747 | 34846 ft | 445 kts | 134° |
| 2026-05-05 14:43 | 47.32798 | 9.10870 | 34850 ft | 446 kts | 134° |
| 2026-05-05 14:43 | 47.28907 | 9.17998 | 34852 ft | 447 kts | 134° |
| 2026-05-05 14:44 | 47.25010 | 9.25122 | 34858 ft | 448 kts | 134° |
| 2026-05-05 14:44 | 47.21091 | 9.32270 | 34859 ft | 449 kts | 134° |
| 2026-05-05 14:45 | 47.17166 | 9.39401 | 34862 ft | 449 kts | 134° |
| 2026-05-05 14:45 | 47.13252 | 9.46495 | 34864 ft | 450 kts | 134° |
| 2026-05-05 14:46 | 47.09305 | 9.53632 | 34868 ft | 451 kts | 134° |
| 2026-05-05 14:46 | 47.05347 | 9.60781 | 34874 ft | 451 kts | 134° |
| 2026-05-05 14:47 | 47.01377 | 9.67930 | 34879 ft | 452 kts | 134° |
| 2026-05-05 14:47 | 46.97398 | 9.75068 | 34884 ft | 453 kts | 134° |
| 2026-05-05 14:48 | 46.93408 | 9.82211 | 34893 ft | 454 kts | 134° |
| 2026-05-05 14:48 | 46.89403 | 9.89367 | 34902 ft | 455 kts | 134° |
| 2026-05-05 14:49 | 46.85388 | 9.96512 | 34910 ft | 456 kts | 134° |
| 2026-05-05 14:49 | 46.81364 | 10.03666 | 34917 ft | 457 kts | 134° |
| 2026-05-05 14:50 | 46.77337 | 10.10793 | 34914 ft | 457 kts | 134° |
| 2026-05-05 14:50 | 46.73276 | 10.17975 | 34927 ft | 459 kts | 134° |
| 2026-05-05 14:51 | 46.69204 | 10.25158 | 34938 ft | 460 kts | 134° |
| 2026-05-05 14:51 | 46.65114 | 10.32340 | 34946 ft | 461 kts | 134° |
| 2026-05-05 14:52 | 46.61011 | 10.39542 | 34950 ft | 463 kts | 134° |
| 2026-05-05 14:52 | 46.56899 | 10.46742 | 34955 ft | 463 kts | 134° |
| 2026-05-05 14:53 | 46.52928 | 10.54130 | 34964 ft | 465 kts | 130° |
| 2026-05-05 14:53 | 46.49210 | 10.61837 | 34966 ft | 466 kts | 129° |
| 2026-05-05 14:54 | 46.45533 | 10.69507 | 34977 ft | 466 kts | 129° |
| 2026-05-05 14:54 | 46.41757 | 10.77151 | 34963 ft | 466 kts | 130° |
| 2026-05-05 14:55 | 46.37942 | 10.84742 | 34977 ft | 467 kts | 130° |
| 2026-05-05 14:55 | 46.34119 | 10.92348 | 35003 ft | 467 kts | 130° |
| 2026-05-05 14:56 | 46.30298 | 10.99946 | 35008 ft | 467 kts | 130° |
| 2026-05-05 14:56 | 46.26481 | 11.07530 | 35018 ft | 467 kts | 130° |
| 2026-05-05 14:57 | 46.22661 | 11.15103 | 35023 ft | 466 kts | 129° |
| 2026-05-05 14:57 | 46.18835 | 11.22661 | 35029 ft | 466 kts | 129° |
| 2026-05-05 14:58 | 46.15009 | 11.30202 | 35027 ft | 466 kts | 129° |
| 2026-05-05 14:58 | 46.11173 | 11.37723 | 35026 ft | 465 kts | 129° |
| 2026-05-05 14:59 | 46.07362 | 11.45182 | 35025 ft | 465 kts | 129° |
| 2026-05-05 14:59 | 46.03523 | 11.52683 | 35025 ft | 465 kts | 129° |
| 2026-05-05 15:00 | 46.00306 | 11.58964 | 35023 ft | 465 kts | 129° |
| 2026-05-05 15:00 | 45.95830 | 11.67664 | 35020 ft | 466 kts | 129° |
| 2026-05-05 15:01 | 45.91974 | 11.75133 | 35022 ft | 466 kts | 129° |
| 2026-05-05 15:01 | 45.88110 | 11.82604 | 35024 ft | 466 kts | 129° |
| 2026-05-05 15:02 | 45.84244 | 11.90060 | 35028 ft | 466 kts | 129° |
| 2026-05-05 15:02 | 45.81028 | 11.96254 | 35027 ft | 465 kts | 129° |
| 2026-05-05 15:03 | 45.77156 | 12.03688 | 35024 ft | 465 kts | 129° |
| 2026-05-05 15:03 | 45.73280 | 12.11106 | 35020 ft | 465 kts | 129° |
| 2026-05-05 15:04 | 45.69400 | 12.18511 | 35018 ft | 465 kts | 129° |
| 2026-05-05 15:04 | 45.65514 | 12.25909 | 35015 ft | 466 kts | 129° |
| 2026-05-05 15:05 | 45.59671 | 12.37005 | 35005 ft | 466 kts | 129° |
| 2026-05-05 15:06 | 45.55762 | 12.44400 | 35008 ft | 466 kts | 130° |
| 2026-05-05 15:06 | 45.51872 | 12.51729 | 35009 ft | 466 kts | 130° |
| 2026-05-05 15:07 | 45.47954 | 12.59099 | 35002 ft | 466 kts | 130° |
| 2026-05-05 15:07 | 45.44035 | 12.66461 | 34998 ft | 467 kts | 130° |
| 2026-05-05 15:08 | 45.40099 | 12.73824 | 35000 ft | 467 kts | 130° |
| 2026-05-05 15:08 | 45.36154 | 12.81181 | 34999 ft | 467 kts | 130° |
| 2026-05-05 15:09 | 45.32201 | 12.88539 | 34983 ft | 469 kts | 130° |
| 2026-05-05 15:09 | 45.28234 | 12.95913 | 34984 ft | 470 kts | 130° |
| 2026-05-05 15:10 | 45.24211 | 13.03247 | 35002 ft | 471 kts | 132° |
| 2026-05-05 15:10 | 45.20038 | 13.10334 | 35003 ft | 470 kts | 134° |
| 2026-05-05 15:11 | 45.15789 | 13.17395 | 35011 ft | 471 kts | 134° |
| 2026-05-05 15:11 | 45.11557 | 13.24492 | 35015 ft | 472 kts | 133° |
| 2026-05-05 15:12 | 45.07338 | 13.31613 | 35013 ft | 472 kts | 133° |
| 2026-05-05 15:12 | 45.03121 | 13.38739 | 35021 ft | 472 kts | 133° |
| 2026-05-05 15:13 | 44.98903 | 13.45844 | 35024 ft | 472 kts | 133° |
| 2026-05-05 15:13 | 44.94670 | 13.52929 | 35025 ft | 472 kts | 133° |
| 2026-05-05 15:14 | 44.90418 | 13.60025 | 35020 ft | 473 kts | 133° |
| 2026-05-05 15:14 | 44.86166 | 13.67116 | 35016 ft | 473 kts | 133° |
| 2026-05-05 15:15 | 44.81937 | 13.74157 | 35014 ft | 474 kts | 134° |
| 2026-05-05 15:15 | 44.77661 | 13.81221 | 35017 ft | 474 kts | 134° |
| 2026-05-05 15:16 | 44.73378 | 13.88299 | 35013 ft | 475 kts | 134° |
| 2026-05-05 15:16 | 44.69090 | 13.95380 | 35014 ft | 475 kts | 134° |
| 2026-05-05 15:17 | 44.64797 | 14.02448 | 35014 ft | 476 kts | 133° |
| 2026-05-05 15:17 | 44.60498 | 14.09500 | 35014 ft | 476 kts | 134° |
| 2026-05-05 15:18 | 44.56188 | 14.16545 | 35014 ft | 476 kts | 134° |
| 2026-05-05 15:18 | 44.51871 | 14.23599 | 35019 ft | 477 kts | 134° |
| 2026-05-05 15:19 | 44.47547 | 14.30647 | 35023 ft | 477 kts | 134° |
| 2026-05-05 15:19 | 44.43210 | 14.37690 | 35025 ft | 478 kts | 134° |
| 2026-05-05 15:20 | 44.38897 | 14.44681 | 35032 ft | 478 kts | 134° |
| 2026-05-05 15:20 | 44.34554 | 14.51716 | 35030 ft | 478 kts | 134° |
| 2026-05-05 15:20 | 44.32380 | 14.55231 | 34679 ft | 478 kts | 134° |
| 2026-05-05 15:21 | 44.30186 | 14.58767 | 33598 ft | 486 kts | 134° |
| 2026-05-05 15:21 | 44.27955 | 14.62350 | 32559 ft | 492 kts | 134° |
| 2026-05-05 15:21 | 44.25698 | 14.65968 | 31728 ft | 493 kts | 134° |
| 2026-05-05 15:21 | 44.23456 | 14.69570 | 30870 ft | 492 kts | 133° |
| 2026-05-05 15:22 | 44.21205 | 14.73185 | 29922 ft | 494 kts | 133° |
| 2026-05-05 15:22 | 44.18951 | 14.76797 | 28976 ft | 494 kts | 133° |
| 2026-05-05 15:22 | 44.16692 | 14.80406 | 28026 ft | 494 kts | 133° |
| 2026-05-05 15:22 | 44.14442 | 14.84003 | 27189 ft | 490 kts | 134° |
| 2026-05-05 15:23 | 44.12204 | 14.87579 | 26284 ft | 488 kts | 133° |
| 2026-05-05 15:23 | 44.10012 | 14.91081 | 25490 ft | 483 kts | 133° |
| 2026-05-05 15:23 | 44.07816 | 14.94586 | 24706 ft | 478 kts | 134° |
| 2026-05-05 15:23 | 44.05639 | 14.98053 | 23918 ft | 472 kts | 134° |
| 2026-05-05 15:24 | 44.03484 | 15.01476 | 23144 ft | 468 kts | 134° |
| 2026-05-05 15:24 | 44.01351 | 15.04860 | 22408 ft | 464 kts | 134° |
| 2026-05-05 15:24 | 43.99236 | 15.08212 | 21691 ft | 459 kts | 134° |
| 2026-05-05 15:24 | 43.97135 | 15.11530 | 20942 ft | 456 kts | 134° |
| 2026-05-05 15:25 | 43.95043 | 15.14831 | 20215 ft | 453 kts | 134° |
| 2026-05-05 15:25 | 43.92864 | 15.17929 | 19496 ft | 447 kts | 141° |
| 2026-05-05 15:25 | 43.90518 | 15.20722 | 18917 ft | 441 kts | 142° |
| 2026-05-05 15:25 | 43.88217 | 15.23470 | 18410 ft | 433 kts | 142° |
| 2026-05-05 15:26 | 43.85959 | 15.26177 | 17894 ft | 426 kts | 142° |
| 2026-05-05 15:26 | 43.83735 | 15.28845 | 17386 ft | 420 kts | 142° |
| 2026-05-05 15:26 | 43.81543 | 15.31477 | 16880 ft | 414 kts | 142° |
| 2026-05-05 15:26 | 43.79377 | 15.34071 | 16365 ft | 410 kts | 142° |
| 2026-05-05 15:27 | 43.77256 | 15.36605 | 15847 ft | 406 kts | 142° |
| 2026-05-05 15:27 | 43.75124 | 15.39146 | 15324 ft | 403 kts | 142° |
| 2026-05-05 15:27 | 43.73006 | 15.41663 | 14759 ft | 400 kts | 142° |
| 2026-05-05 15:27 | 43.70898 | 15.44168 | 14207 ft | 399 kts | 142° |
| 2026-05-05 15:28 | 43.68801 | 15.46658 | 13647 ft | 396 kts | 141° |
| 2026-05-05 15:28 | 43.66714 | 15.49132 | 13071 ft | 393 kts | 142° |
| 2026-05-05 15:28 | 43.64506 | 15.51175 | 12910 ft | 372 kts | 158° |
| 2026-05-05 15:28 | 43.62182 | 15.52546 | 12827 ft | 359 kts | 161° |
| 2026-05-05 15:29 | 43.59866 | 15.53865 | 12746 ft | 361 kts | 161° |
| 2026-05-05 15:29 | 43.57545 | 15.55176 | 12662 ft | 361 kts | 161° |
| 2026-05-05 15:29 | 43.55224 | 15.56478 | 12587 ft | 360 kts | 161° |
| 2026-05-05 15:29 | 43.52904 | 15.57776 | 12509 ft | 360 kts | 161° |
| 2026-05-05 15:30 | 43.50584 | 15.59072 | 12429 ft | 360 kts | 161° |
| 2026-05-05 15:30 | 43.48263 | 15.60367 | 12350 ft | 359 kts | 161° |
| 2026-05-05 15:30 | 43.45949 | 15.61658 | 12218 ft | 360 kts | 161° |
| 2026-05-05 15:30 | 43.43627 | 15.62953 | 11717 ft | 359 kts | 161° |
| 2026-05-05 15:31 | 43.41314 | 15.64245 | 11153 ft | 359 kts | 161° |
| 2026-05-05 15:31 | 43.39024 | 15.65522 | 10864 ft | 349 kts | 160° |
| 2026-05-05 15:31 | 43.36820 | 15.66754 | 10734 ft | 335 kts | 160° |
| 2026-05-05 15:31 | 43.34700 | 15.67939 | 10607 ft | 323 kts | 160° |
| 2026-05-05 15:32 | 43.32657 | 15.69100 | 10482 ft | 312 kts | 157° |
| 2026-05-05 15:32 | 43.30833 | 15.70628 | 10357 ft | 304 kts | 144° |
| 2026-05-05 15:32 | 43.29290 | 15.72573 | 10118 ft | 299 kts | 138° |
| 2026-05-05 15:32 | 43.27820 | 15.74557 | 9976 ft | 294 kts | 138° |
| 2026-05-05 15:33 | 43.26356 | 15.76525 | 9547 ft | 298 kts | 138° |
| 2026-05-05 15:33 | 43.25115 | 15.78730 | 9305 ft | 295 kts | 117° |
| 2026-05-05 15:33 | 43.24704 | 15.81445 | 8779 ft | 295 kts | 88° |
| 2026-05-05 15:33 | 43.25331 | 15.84108 | 8160 ft | 298 kts | 58° |
| 2026-05-05 15:34 | 43.26704 | 15.86243 | 7481 ft | 298 kts | 47° |
| 2026-05-05 15:34 | 43.28156 | 15.88263 | 6844 ft | 296 kts | 46° |
| 2026-05-05 15:34 | 43.29598 | 15.90252 | 6225 ft | 292 kts | 46° |
| 2026-05-05 15:34 | 43.31019 | 15.92213 | 5612 ft | 288 kts | 46° |
| 2026-05-05 15:35 | 43.32415 | 15.94151 | 5095 ft | 281 kts | 46° |
| 2026-05-05 15:35 | 43.33765 | 15.96032 | 4906 ft | 271 kts | 47° |
| 2026-05-05 15:35 | 43.35060 | 15.97846 | 4776 ft | 260 kts | 47° |
| 2026-05-05 15:35 | 43.36297 | 15.99577 | 4660 ft | 248 kts | 47° |
| 2026-05-05 15:36 | 43.37493 | 16.01245 | 4563 ft | 244 kts | 45° |
| 2026-05-05 15:36 | 43.38721 | 16.02852 | 4461 ft | 242 kts | 48° |
| 2026-05-05 15:36 | 43.39817 | 16.04610 | 4294 ft | 242 kts | 53° |
| 2026-05-05 15:36 | 43.40842 | 16.06433 | 3992 ft | 240 kts | 54° |
| 2026-05-05 15:37 | 43.41843 | 16.08227 | 3687 ft | 232 kts | 53° |
| 2026-05-05 15:37 | 43.42809 | 16.09952 | 3386 ft | 222 kts | 53° |
| 2026-05-05 15:37 | 43.43721 | 16.11579 | 3104 ft | 208 kts | 54° |
| 2026-05-05 15:37 | 43.44565 | 16.13086 | 2853 ft | 190 kts | 54° |
| 2026-05-05 15:38 | 43.45338 | 16.14466 | 2628 ft | 174 kts | 54° |
| 2026-05-05 15:38 | 43.46035 | 16.15712 | 2383 ft | 159 kts | 54° |
| 2026-05-05 15:38 | 43.46696 | 16.16893 | 2162 ft | 150 kts | 54° |
| 2026-05-05 15:38 | 43.47313 | 16.17997 | 1984 ft | 146 kts | 54° |
| 2026-05-05 15:39 | 43.47926 | 16.19094 | 1796 ft | 143 kts | 55° |
| 2026-05-05 15:39 | 43.48530 | 16.20183 | 1578 ft | 142 kts | 54° |
| 2026-05-05 15:39 | 43.49146 | 16.21240 | 1389 ft | 141 kts | 54° |
| 2026-05-05 15:39 | 43.49742 | 16.22307 | 1273 ft | 140 kts | 55° |
| 2026-05-05 15:40 | 43.50316 | 16.23373 | 1052 ft | 138 kts | 56° |
| 2026-05-05 15:40 | 43.50908 | 16.24407 | 857 ft | 137 kts | 53° |
| 2026-05-05 15:40 | 43.51485 | 16.25455 | 678 ft | 138 kts | 56° |
| 2026-05-05 15:40 | 43.52061 | 16.26499 | 477 ft | 136 kts | 55° |
| 2026-05-05 15:41 | 43.52641 | 16.27531 | 310 ft | 138 kts | 54° |
| 2026-05-05 15:41 | 43.53218 | 16.28575 | 122 ft | 136 kts | 54° |
| 2026-05-05 15:41 | 43.53729 | 16.29496 | 81 ft | 93 kts | 52° |
| 2026-05-05 15:41 | 43.53973 | 16.29939 | 74 ft | 40 kts | 52° |
| 2026-05-05 15:42 | 43.54043 | 16.30110 | 74 ft | 9 kts | 136° |
| 2026-05-05 15:42 | 43.53993 | 16.30096 | 72 ft | 8 kts | 201° |
| 2026-05-05 15:42 | 43.53927 | 16.30065 | 66 ft | 13 kts | 198° |
| 2026-05-05 15:42 | 43.53864 | 16.29984 | 68 ft | 13 kts | 233° |
| 2026-05-05 15:43 | 43.53790 | 16.29850 | 61 ft | 19 kts | 232° |
| 2026-05-05 15:43 | 43.53711 | 16.29709 | 68 ft | 12 kts | 233° |
| 2026-05-05 15:43 | 43.53671 | 16.29674 | 68 ft | 8 kts | 168° |
| 2026-05-05 15:43 | 43.53659 | 16.29721 | 64 ft | 4 kts | 92° |
| 2026-05-05 15:44 | 43.53658 | 16.29744 | 68 ft | 1 kts | 94° |
| 2026-05-05 15:44 | 43.53657 | 16.29748 | 68 ft | 0 kts | 94° |